createdAt,value
2018-05-24T00:00:01.261Z,16.20
2018-05-24T00:01:04.493Z,16.30
2018-05-24T00:02:08.474Z,16.20
2018-05-24T00:03:12.478Z,16.20
2018-05-24T00:04:16.474Z,16.20
2018-05-24T00:05:19.698Z,16.20
2018-05-24T00:06:22.925Z,16.20
2018-05-24T00:07:26.142Z,16.20
2018-05-24T00:08:29.372Z,16.10
2018-05-24T00:09:32.607Z,16.10
2018-05-24T00:10:35.825Z,16.00
2018-05-24T00:11:39.070Z,16.00
2018-05-24T00:12:42.349Z,16.10
2018-05-24T00:13:46.335Z,16.10
2018-05-24T00:14:50.360Z,16.10
2018-05-24T00:15:53.588Z,16.10
2018-05-24T00:16:56.821Z,16.10
2018-05-24T00:18:00.066Z,16.10
2018-05-24T00:19:03.286Z,16.10
2018-05-24T00:20:06.580Z,16.00
2018-05-24T00:21:09.789Z,16.00
2018-05-24T00:22:13.021Z,16.10
2018-05-24T00:23:17.036Z,16.10
2018-05-24T00:24:21.032Z,16.00
2018-05-24T00:25:25.084Z,15.90
2018-05-24T00:26:28.302Z,15.90
2018-05-24T00:27:32.323Z,15.90
2018-05-24T00:28:35.561Z,15.90
2018-05-24T00:29:38.791Z,15.90
2018-05-24T00:30:42.036Z,15.90
2018-05-24T00:31:46.021Z,15.80
2018-05-24T00:32:49.227Z,15.80
2018-05-24T00:33:53.234Z,15.80
2018-05-24T00:34:57.231Z,15.80
2018-05-24T00:36:00.487Z,15.80
2018-05-24T00:37:03.703Z,15.80
2018-05-24T00:38:07.696Z,15.80
2018-05-24T00:39:11.732Z,15.80
2018-05-24T00:40:15.731Z,15.80
2018-05-24T00:41:18.958Z,15.80
2018-05-24T00:42:22.199Z,15.80
2018-05-24T00:43:25.447Z,15.80
2018-05-24T00:44:29.449Z,15.80
2018-05-24T00:45:33.443Z,15.80
2018-05-24T00:46:36.666Z,15.80
2018-05-24T00:47:39.887Z,15.80
2018-05-24T00:48:43.105Z,15.90
2018-05-24T00:49:47.132Z,15.80
2018-05-24T00:50:50.410Z,15.80
2018-05-24T00:51:53.635Z,15.90
2018-05-24T00:52:56.853Z,15.90
2018-05-24T00:54:00.874Z,15.90
2018-05-24T00:55:16.040Z,15.80
2018-05-24T00:56:19.250Z,15.80
2018-05-24T00:57:22.477Z,15.80
2018-05-24T00:58:26.487Z,15.80
2018-05-24T00:59:30.578Z,15.80
2018-05-24T01:00:33.769Z,15.80
2018-05-24T01:01:37.758Z,15.80
2018-05-24T01:02:41.009Z,15.70
2018-05-24T01:03:44.234Z,15.70
2018-05-24T01:04:48.257Z,15.70
2018-05-24T01:05:51.545Z,15.70
2018-05-24T01:06:55.526Z,15.80
2018-05-24T01:07:59.518Z,15.90
2018-05-24T01:09:03.498Z,15.80
2018-05-24T01:10:06.732Z,15.90
2018-05-24T01:11:09.953Z,15.90
2018-05-24T01:12:13.158Z,15.90
2018-05-24T01:13:17.155Z,15.80
2018-05-24T01:14:20.366Z,15.80
2018-05-24T01:15:23.589Z,15.80
2018-05-24T01:16:26.834Z,15.80
2018-05-24T01:17:30.808Z,15.90
2018-05-24T01:18:34.019Z,15.90
2018-05-24T01:19:37.247Z,15.90
2018-05-24T01:20:40.499Z,15.90
2018-05-24T01:21:43.715Z,15.80
2018-05-24T01:22:47.755Z,15.70
2018-05-24T01:23:51.738Z,15.70
2018-05-24T01:24:55.735Z,15.70
2018-05-24T01:25:58.963Z,15.70
2018-05-24T01:27:02.204Z,15.70
2018-05-24T01:28:05.455Z,15.60
2018-05-24T01:29:08.684Z,15.70
2018-05-24T01:30:12.709Z,15.70
2018-05-24T01:31:15.977Z,15.70
2018-05-24T01:32:19.952Z,15.70
2018-05-24T01:33:23.186Z,15.70
2018-05-24T01:34:26.436Z,15.80
2018-05-24T01:35:30.475Z,15.70
2018-05-24T01:36:45.614Z,15.70
2018-05-24T01:37:50.328Z,15.70
2018-05-24T01:38:54.316Z,15.70
2018-05-24T01:39:58.303Z,15.80
2018-05-24T01:41:02.313Z,15.80
2018-05-24T01:42:06.345Z,15.70
2018-05-24T01:43:10.344Z,15.70
2018-05-24T01:44:13.587Z,15.70
2018-05-24T01:45:16.800Z,15.70
2018-05-24T01:46:20.012Z,15.80
2018-05-24T01:47:23.292Z,15.80
2018-05-24T01:48:26.519Z,15.80
2018-05-24T01:49:29.749Z,15.80
2018-05-24T01:50:32.996Z,15.70
2018-05-24T01:51:36.990Z,15.70
2018-05-24T01:52:40.227Z,15.70
2018-05-24T01:53:43.443Z,15.70
2018-05-24T01:54:46.665Z,15.70
2018-05-24T01:55:49.886Z,15.70
2018-05-24T01:56:53.135Z,15.70
2018-05-24T01:57:56.438Z,15.70
2018-05-24T01:58:59.696Z,15.70
2018-05-24T02:00:02.953Z,15.70
2018-05-24T02:01:06.149Z,15.70
2018-05-24T02:02:10.153Z,15.70
2018-05-24T02:03:14.178Z,15.70
2018-05-24T02:04:18.192Z,15.60
2018-05-24T02:05:21.443Z,15.60
2018-05-24T02:06:25.449Z,15.60
2018-05-24T02:07:28.672Z,15.50
2018-05-24T02:08:31.925Z,15.50
2018-05-24T02:09:35.149Z,15.60
2018-05-24T02:10:38.379Z,15.50
2018-05-24T02:11:41.640Z,15.50
2018-05-24T02:12:46.369Z,15.60
2018-05-24T02:13:50.359Z,15.60
2018-05-24T02:14:54.359Z,15.50
2018-05-24T02:15:57.683Z,15.50
2018-05-24T02:17:00.915Z,15.50
2018-05-24T02:18:04.143Z,15.60
2018-05-24T02:19:07.364Z,15.50
2018-05-24T02:20:10.594Z,15.50
2018-05-24T02:21:13.890Z,15.50
2018-05-24T02:22:17.109Z,15.50
2018-05-24T02:23:20.346Z,15.50
2018-05-24T02:24:24.340Z,15.50
2018-05-24T02:25:28.322Z,15.50
2018-05-24T02:26:32.328Z,15.50
2018-05-24T02:27:36.340Z,15.60
2018-05-24T02:28:40.339Z,15.60
2018-05-24T02:29:44.338Z,15.60
2018-05-24T02:30:48.340Z,15.60
2018-05-24T02:31:52.405Z,15.60
2018-05-24T02:32:55.619Z,15.60
2018-05-24T02:33:59.609Z,15.50
2018-05-24T02:35:02.822Z,15.50
2018-05-24T02:36:06.177Z,15.50
2018-05-24T02:37:10.072Z,15.40
2018-05-24T02:38:14.815Z,15.40
2018-05-24T02:39:18.794Z,15.50
2018-05-24T02:40:22.032Z,15.40
2018-05-24T02:41:25.246Z,15.40
2018-05-24T02:42:28.483Z,15.40
2018-05-24T02:43:31.695Z,15.40
2018-05-24T02:44:34.973Z,15.40
2018-05-24T02:45:38.197Z,15.40
2018-05-24T02:46:41.412Z,15.40
2018-05-24T02:47:44.714Z,15.30
2018-05-24T02:48:47.919Z,15.30
2018-05-24T02:49:51.167Z,15.20
2018-05-24T02:50:54.451Z,15.20
2018-05-24T02:51:57.694Z,15.20
2018-05-24T02:53:01.718Z,15.30
2018-05-24T02:54:05.729Z,15.30
2018-05-24T02:55:09.731Z,15.30
2018-05-24T02:56:12.989Z,15.30
2018-05-24T02:57:17.002Z,15.20
2018-05-24T02:58:21.005Z,15.20
2018-05-24T02:59:24.983Z,15.20
2018-05-24T03:00:28.223Z,15.20
2018-05-24T03:01:31.436Z,15.30
2018-05-24T03:02:35.427Z,15.40
2018-05-24T03:03:38.662Z,15.40
2018-05-24T03:04:42.628Z,15.40
2018-05-24T03:05:45.853Z,15.40
2018-05-24T03:06:49.081Z,15.40
2018-05-24T03:07:52.305Z,15.40
2018-05-24T03:08:55.540Z,15.40
2018-05-24T03:09:58.748Z,15.40
2018-05-24T03:11:01.953Z,15.40
2018-05-24T03:12:05.189Z,15.40
2018-05-24T03:13:08.432Z,15.40
2018-05-24T03:14:11.661Z,15.40
2018-05-24T03:15:14.917Z,15.50
2018-05-24T03:16:18.114Z,15.50
2018-05-24T03:17:21.360Z,15.50
2018-05-24T03:18:24.568Z,15.60
2018-05-24T03:19:27.800Z,15.60
2018-05-24T03:20:31.786Z,15.60
2018-05-24T03:21:35.786Z,15.60
2018-05-24T03:22:39.807Z,15.60
2018-05-24T03:23:43.043Z,15.50
2018-05-24T03:24:46.262Z,15.50
2018-05-24T03:25:50.259Z,15.60
2018-05-24T03:26:53.472Z,15.60
2018-05-24T03:27:56.667Z,15.60
2018-05-24T03:28:59.892Z,15.70
2018-05-24T03:30:03.118Z,15.60
2018-05-24T03:31:06.344Z,15.60
2018-05-24T03:32:09.553Z,15.60
2018-05-24T03:33:12.770Z,15.50
2018-05-24T03:34:15.979Z,15.60
2018-05-24T03:35:19.323Z,15.50
2018-05-24T03:36:23.190Z,15.60
2018-05-24T03:37:26.425Z,15.50
2018-05-24T03:38:29.627Z,15.60
2018-05-24T03:39:32.844Z,15.60
2018-05-24T03:40:36.195Z,15.60
2018-05-24T03:41:39.411Z,15.60
2018-05-24T03:42:42.623Z,15.60
2018-05-24T03:43:45.867Z,15.60
2018-05-24T03:44:49.075Z,15.60
2018-05-24T03:45:53.051Z,15.70
2018-05-24T03:46:56.285Z,15.70
2018-05-24T03:47:59.545Z,15.70
2018-05-24T03:49:03.566Z,15.70
2018-05-24T03:50:06.819Z,15.70
2018-05-24T03:51:10.835Z,15.70
2018-05-24T03:52:14.216Z,15.70
2018-05-24T03:53:17.638Z,15.70
2018-05-24T03:54:21.011Z,15.80
2018-05-24T03:55:24.627Z,15.70
2018-05-24T03:56:27.870Z,15.70
2018-05-24T03:57:31.839Z,15.60
2018-05-24T03:58:35.061Z,15.60
2018-05-24T04:00:00.457Z,15.60
2018-05-24T04:01:16.351Z,15.60
2018-05-24T04:02:31.402Z,15.60
2018-05-24T04:03:46.546Z,15.50
2018-05-24T04:04:53.225Z,15.50
2018-05-24T04:05:56.447Z,15.50
2018-05-24T04:06:59.710Z,15.50
2018-05-24T04:08:03.861Z,15.40
2018-05-24T04:09:07.085Z,15.40
2018-05-24T04:10:10.365Z,15.50
2018-05-24T04:11:13.581Z,15.50
2018-05-24T04:12:16.802Z,15.50
2018-05-24T04:13:20.064Z,15.50
2018-05-24T04:14:23.267Z,15.50
2018-05-24T04:15:26.495Z,15.40
2018-05-24T04:16:29.753Z,15.40
2018-05-24T04:17:32.966Z,15.40
2018-05-24T04:18:37.697Z,15.40
2018-05-24T04:19:40.923Z,15.40
2018-05-24T04:20:44.188Z,15.40
2018-05-24T04:21:47.391Z,15.50
2018-05-24T04:22:50.656Z,15.50
2018-05-24T04:23:54.665Z,15.50
2018-05-24T04:24:58.645Z,15.50
2018-05-24T04:26:02.633Z,15.60
2018-05-24T04:27:05.980Z,15.50
2018-05-24T04:28:09.886Z,15.60
2018-05-24T04:29:13.910Z,15.70
2018-05-24T04:30:17.201Z,15.70
2018-05-24T04:31:20.801Z,15.70
2018-05-24T04:32:24.018Z,15.70
2018-05-24T04:33:28.830Z,15.70
2018-05-24T04:34:32.041Z,15.70
2018-05-24T04:35:36.079Z,15.70
2018-05-24T04:36:39.367Z,15.70
2018-05-24T04:37:43.342Z,15.70
2018-05-24T04:38:47.353Z,15.70
2018-05-24T04:39:50.588Z,15.80
2018-05-24T04:40:53.818Z,15.80
2018-05-24T04:41:57.037Z,15.80
2018-05-24T04:43:00.296Z,15.80
2018-05-24T04:44:03.521Z,15.90
2018-05-24T04:45:08.284Z,15.70
2018-05-24T04:46:12.302Z,15.80
2018-05-24T04:47:15.517Z,15.80
2018-05-24T04:48:18.878Z,15.90
2018-05-24T04:49:22.115Z,15.90
2018-05-24T04:50:26.131Z,16.00
2018-05-24T04:51:29.355Z,16.00
2018-05-24T04:52:32.583Z,16.10
2018-05-24T04:53:35.875Z,16.00
2018-05-24T04:54:39.098Z,16.00
2018-05-24T04:55:42.343Z,15.90
2018-05-24T04:56:45.564Z,16.00
2018-05-24T04:57:48.802Z,16.00
2018-05-24T04:58:52.023Z,16.00
2018-05-24T04:59:55.271Z,16.00
2018-05-24T05:00:58.567Z,16.00
2018-05-24T05:02:02.555Z,16.00
2018-05-24T05:03:06.541Z,16.00
2018-05-24T05:04:10.573Z,16.00
2018-05-24T05:05:13.787Z,16.00
2018-05-24T05:06:17.006Z,16.00
2018-05-24T05:07:21.044Z,15.90
2018-05-24T05:08:24.298Z,15.90
2018-05-24T05:09:28.298Z,16.00
2018-05-24T05:10:33.018Z,16.10
2018-05-24T05:11:37.004Z,16.10
2018-05-24T05:12:41.006Z,16.10
2018-05-24T05:13:44.327Z,16.10
2018-05-24T05:14:47.602Z,16.20
2018-05-24T05:15:51.584Z,16.10
2018-05-24T05:16:55.602Z,16.10
2018-05-24T05:17:58.845Z,16.00
2018-05-24T05:19:02.177Z,16.00
2018-05-24T05:20:05.378Z,16.00
2018-05-24T05:21:08.597Z,16.00
2018-05-24T05:22:11.808Z,16.00
2018-05-24T05:23:15.108Z,16.10
2018-05-24T05:24:19.029Z,16.20
2018-05-24T05:25:23.006Z,16.20
2018-05-24T05:26:27.793Z,16.10
2018-05-24T05:27:30.990Z,16.10
2018-05-24T05:28:34.230Z,16.20
2018-05-24T05:29:38.261Z,16.20
2018-05-24T05:30:41.524Z,16.20
2018-05-24T05:31:44.721Z,16.20
2018-05-24T05:32:47.938Z,16.10
2018-05-24T05:33:51.176Z,16.10
2018-05-24T05:34:54.417Z,16.20
2018-05-24T05:35:57.630Z,16.30
2018-05-24T05:37:01.613Z,16.30
2018-05-24T05:38:05.608Z,16.30
2018-05-24T05:39:08.837Z,16.30
2018-05-24T05:40:12.079Z,16.40
2018-05-24T05:41:15.304Z,16.40
2018-05-24T05:42:18.536Z,16.30
2018-05-24T05:43:21.749Z,16.40
2018-05-24T05:44:24.987Z,16.40
2018-05-24T05:45:28.978Z,16.30
2018-05-24T05:46:32.304Z,16.30
2018-05-24T05:47:35.456Z,16.30
2018-05-24T05:48:38.702Z,16.20
2018-05-24T05:49:41.951Z,16.30
2018-05-24T05:50:45.992Z,16.40
2018-05-24T05:51:49.215Z,16.40
2018-05-24T05:52:52.476Z,16.40
2018-05-24T05:53:55.697Z,16.30
2018-05-24T05:54:59.689Z,16.30
2018-05-24T05:56:02.915Z,16.30
2018-05-24T05:57:06.174Z,16.30
2018-05-24T05:58:10.178Z,16.30
2018-05-24T05:59:14.205Z,16.30
2018-05-24T06:00:17.425Z,16.30
2018-05-24T06:01:22.963Z,16.40
2018-05-24T06:02:26.240Z,16.40
2018-05-24T06:03:29.473Z,16.40
2018-05-24T06:04:32.707Z,16.30
2018-05-24T06:05:35.947Z,16.20
2018-05-24T06:06:39.160Z,16.20
2018-05-24T06:07:42.456Z,16.10
2018-05-24T06:08:45.740Z,16.10
2018-05-24T06:09:48.942Z,16.20
2018-05-24T06:10:52.176Z,16.20
2018-05-24T06:11:55.395Z,16.20
2018-05-24T06:12:58.631Z,16.10
2018-05-24T06:14:01.834Z,16.10
2018-05-24T06:15:05.066Z,16.20
2018-05-24T06:16:09.084Z,16.30
2018-05-24T06:17:12.363Z,16.30
2018-05-24T06:18:15.650Z,16.20
2018-05-24T06:19:19.672Z,16.10
2018-05-24T06:20:22.906Z,16.10
2018-05-24T06:21:26.891Z,16.10
2018-05-24T06:22:30.090Z,16.10
2018-05-24T06:23:34.129Z,16.20
2018-05-24T06:24:37.386Z,16.10
2018-05-24T06:25:40.603Z,16.20
2018-05-24T06:26:43.846Z,16.20
2018-05-24T06:27:47.062Z,16.20
2018-05-24T06:28:50.262Z,16.30
2018-05-24T06:29:53.472Z,16.30
2018-05-24T06:30:57.458Z,16.30
2018-05-24T06:32:00.674Z,16.30
2018-05-24T06:33:03.903Z,16.40
2018-05-24T06:34:07.144Z,16.50
2018-05-24T06:35:11.154Z,16.50
2018-05-24T06:36:14.435Z,16.50
2018-05-24T06:37:18.552Z,16.50
2018-05-24T06:38:22.407Z,16.40
2018-05-24T06:39:25.648Z,16.40
2018-05-24T06:40:28.959Z,16.30
2018-05-24T06:41:32.090Z,16.30
2018-05-24T06:42:35.304Z,16.40
2018-05-24T06:43:38.513Z,16.40
2018-05-24T06:44:41.717Z,16.30
2018-05-24T06:45:45.703Z,16.30
2018-05-24T06:46:48.942Z,16.30
2018-05-24T06:47:52.183Z,16.30
2018-05-24T06:48:56.177Z,16.30
2018-05-24T06:49:59.407Z,16.30
2018-05-24T06:51:02.626Z,16.40
2018-05-24T06:52:05.839Z,16.40
2018-05-24T06:53:09.845Z,16.50
2018-05-24T06:54:13.839Z,16.50
2018-05-24T06:55:17.083Z,16.50
2018-05-24T06:56:20.304Z,16.50
2018-05-24T06:57:24.295Z,16.50
2018-05-24T06:58:27.528Z,16.50
2018-05-24T06:59:30.764Z,16.50
2018-05-24T07:00:33.981Z,16.60
2018-05-24T07:01:37.962Z,16.60
2018-05-24T07:02:41.276Z,16.60
2018-05-24T07:03:44.436Z,16.60
2018-05-24T07:04:47.717Z,16.60
2018-05-24T07:05:51.042Z,16.60
2018-05-24T07:06:54.162Z,16.60
2018-05-24T07:07:58.160Z,16.60
2018-05-24T07:09:01.448Z,16.60
2018-05-24T07:10:05.477Z,16.60
2018-05-24T07:11:08.778Z,16.60
2018-05-24T07:12:11.930Z,16.70
2018-05-24T07:13:15.953Z,16.60
2018-05-24T07:14:19.176Z,16.60
2018-05-24T07:15:23.962Z,16.60
2018-05-24T07:16:27.234Z,16.60
2018-05-24T07:17:30.482Z,16.50
2018-05-24T07:18:33.715Z,16.50
2018-05-24T07:19:37.069Z,16.50
2018-05-24T07:20:40.331Z,16.60
2018-05-24T07:21:43.556Z,16.60
2018-05-24T07:22:46.759Z,16.70
2018-05-24T07:23:50.017Z,16.70
2018-05-24T07:24:53.232Z,16.70
2018-05-24T07:25:56.475Z,16.80
2018-05-24T07:26:59.807Z,16.80
2018-05-24T07:28:02.990Z,16.80
2018-05-24T07:29:07.022Z,16.90
2018-05-24T07:30:11.141Z,17.00
2018-05-24T07:31:14.435Z,16.90
2018-05-24T07:32:17.647Z,16.90
2018-05-24T07:33:20.893Z,16.90
2018-05-24T07:34:24.876Z,16.80
2018-05-24T07:35:28.109Z,16.80
2018-05-24T07:36:31.367Z,16.80
2018-05-24T07:37:34.576Z,16.80
2018-05-24T07:38:37.800Z,16.80
2018-05-24T07:39:41.144Z,16.90
2018-05-24T07:40:44.353Z,16.90
2018-05-24T07:41:47.658Z,16.80
2018-05-24T07:42:51.757Z,16.70
2018-05-24T07:43:55.173Z,16.70
2018-05-24T07:44:58.412Z,16.70
2018-05-24T07:46:01.632Z,16.70
2018-05-24T07:47:04.845Z,16.60
2018-05-24T07:48:08.067Z,16.60
2018-05-24T07:49:11.304Z,16.60
2018-05-24T07:50:14.542Z,16.60
2018-05-24T07:51:17.800Z,16.60
2018-05-24T07:52:21.049Z,16.60
2018-05-24T07:53:24.310Z,16.60
2018-05-24T07:54:28.294Z,16.70
2018-05-24T07:55:32.284Z,16.70
2018-05-24T07:56:35.517Z,16.70
2018-05-24T07:57:38.748Z,16.70
2018-05-24T07:58:41.957Z,16.60
2018-05-24T07:59:45.187Z,16.70
2018-05-24T08:00:48.407Z,16.70
2018-05-24T08:01:52.395Z,16.80
2018-05-24T08:02:55.607Z,16.80
2018-05-24T08:03:58.866Z,16.80
2018-05-24T08:05:02.866Z,16.80
2018-05-24T08:06:06.095Z,16.80
2018-05-24T08:07:09.355Z,16.80
2018-05-24T08:08:12.636Z,16.80
2018-05-24T08:09:15.868Z,16.90
2018-05-24T08:10:19.108Z,16.90
2018-05-24T08:11:23.099Z,16.90
2018-05-24T08:12:26.416Z,16.90
2018-05-24T08:13:29.636Z,17.00
2018-05-24T08:14:32.855Z,16.90
2018-05-24T08:15:36.197Z,16.90
2018-05-24T08:16:39.398Z,16.90
2018-05-24T08:17:42.640Z,17.00
2018-05-24T08:18:45.849Z,17.00
2018-05-24T08:19:50.688Z,17.00
2018-05-24T08:20:53.938Z,17.00
2018-05-24T08:21:57.154Z,17.10
2018-05-24T08:23:01.186Z,17.10
2018-05-24T08:24:04.412Z,17.10
2018-05-24T08:25:07.758Z,17.10
2018-05-24T08:26:10.993Z,17.20
2018-05-24T08:27:14.219Z,17.20
2018-05-24T08:28:17.539Z,17.30
2018-05-24T08:29:20.778Z,17.30
2018-05-24T08:30:24.092Z,17.30
2018-05-24T08:31:27.299Z,17.30
2018-05-24T08:32:30.526Z,17.30
2018-05-24T08:33:34.526Z,17.20
2018-05-24T08:34:38.510Z,17.20
2018-05-24T08:35:42.605Z,17.30
2018-05-24T08:36:46.718Z,17.30
2018-05-24T08:37:49.908Z,17.30
2018-05-24T08:38:53.916Z,17.20
2018-05-24T08:39:57.899Z,17.10
2018-05-24T08:41:02.067Z,17.10
2018-05-24T08:42:05.264Z,17.10
2018-05-24T08:43:08.620Z,17.10
2018-05-24T08:44:11.847Z,17.10
2018-05-24T08:45:15.149Z,17.00
2018-05-24T08:46:18.381Z,17.00
2018-05-24T08:47:21.626Z,17.00
2018-05-24T08:48:24.811Z,17.00
2018-05-24T08:49:28.049Z,17.00
2018-05-24T08:50:31.276Z,17.00
2018-05-24T08:51:34.499Z,17.00
2018-05-24T08:52:37.717Z,17.00
2018-05-24T08:53:41.707Z,17.00
2018-05-24T08:54:45.038Z,17.00
2018-05-24T08:55:48.301Z,17.00
2018-05-24T08:56:51.495Z,17.10
2018-05-24T08:57:54.772Z,17.10
2018-05-24T08:58:58.036Z,17.10
2018-05-24T09:00:02.032Z,17.20
2018-05-24T09:01:05.288Z,17.20
2018-05-24T09:02:08.500Z,17.30
2018-05-24T09:03:12.498Z,17.20
2018-05-24T09:04:15.817Z,17.20
2018-05-24T09:05:19.057Z,17.30
2018-05-24T09:06:22.282Z,17.30
2018-05-24T09:07:25.532Z,17.40
2018-05-24T09:08:29.503Z,17.50
2018-05-24T09:09:32.738Z,17.50
2018-05-24T09:10:36.742Z,17.50
2018-05-24T09:11:40.028Z,17.50
2018-05-24T09:12:43.392Z,17.60
2018-05-24T09:13:46.599Z,17.60
2018-05-24T09:14:49.844Z,17.60
2018-05-24T09:15:53.106Z,17.60
2018-05-24T09:16:56.315Z,17.60
2018-05-24T09:18:00.307Z,17.70
2018-05-24T09:19:03.544Z,17.60
2018-05-24T09:20:06.784Z,17.70
2018-05-24T09:21:10.027Z,17.70
2018-05-24T09:22:13.267Z,17.70
2018-05-24T09:23:17.278Z,17.70
2018-05-24T09:24:20.500Z,17.70
2018-05-24T09:25:23.755Z,17.80
2018-05-24T09:26:26.990Z,17.80
2018-05-24T09:27:30.231Z,17.80
2018-05-24T09:28:33.483Z,17.90
2018-05-24T09:29:36.723Z,17.90
2018-05-24T09:30:39.972Z,18.00
2018-05-24T09:31:43.174Z,18.00
2018-05-24T09:32:46.419Z,18.10
2018-05-24T09:33:49.638Z,18.10
2018-05-24T09:34:52.853Z,18.10
2018-05-24T09:35:56.115Z,18.20
2018-05-24T09:36:59.315Z,18.20
2018-05-24T09:38:02.544Z,18.30
2018-05-24T09:39:05.782Z,18.30
2018-05-24T09:40:08.993Z,18.30
2018-05-24T09:41:12.239Z,18.40
2018-05-24T09:42:15.592Z,18.50
2018-05-24T09:43:18.694Z,18.40
2018-05-24T09:44:21.931Z,18.40
2018-05-24T09:45:25.236Z,18.40
2018-05-24T09:46:28.498Z,18.40
2018-05-24T09:47:31.727Z,18.40
2018-05-24T09:48:34.971Z,18.40
2018-05-24T09:49:38.185Z,18.50
2018-05-24T09:50:41.440Z,18.50
2018-05-24T09:51:44.663Z,18.60
2018-05-24T09:52:47.994Z,18.60
2018-05-24T09:53:51.224Z,18.70
2018-05-24T09:54:54.555Z,18.70
2018-05-24T09:55:57.783Z,18.70
2018-05-24T09:57:01.050Z,18.80
2018-05-24T09:58:04.268Z,18.70
2018-05-24T09:59:07.593Z,18.80
2018-05-24T10:00:10.916Z,18.80
2018-05-24T10:01:14.118Z,18.80
2018-05-24T10:02:17.345Z,18.80
2018-05-24T10:03:20.631Z,18.80
2018-05-24T10:04:23.846Z,18.80
2018-05-24T10:05:27.086Z,18.80
2018-05-24T10:06:31.105Z,18.80
2018-05-24T10:07:35.579Z,18.80
2018-05-24T10:08:39.595Z,19.00
2018-05-24T10:09:43.596Z,18.90
2018-05-24T10:10:47.604Z,19.00
2018-05-24T10:11:50.831Z,18.90
2018-05-24T10:12:54.083Z,19.00
2018-05-24T10:13:57.311Z,18.90
2018-05-24T10:15:00.536Z,19.00
2018-05-24T10:16:04.614Z,19.10
2018-05-24T10:17:07.758Z,19.10
2018-05-24T10:18:10.994Z,19.10
2018-05-24T10:19:15.039Z,19.10
2018-05-24T10:20:18.277Z,19.10
2018-05-24T10:21:22.944Z,19.10
2018-05-24T10:22:26.180Z,19.10
2018-05-24T10:23:29.461Z,19.10
2018-05-24T10:24:32.641Z,19.10
2018-05-24T10:25:36.636Z,19.10
2018-05-24T10:26:40.645Z,19.10
2018-05-24T10:27:44.755Z,19.10
2018-05-24T10:28:48.746Z,19.00
2018-05-24T10:29:52.748Z,19.20
2018-05-24T10:30:56.752Z,19.30
2018-05-24T10:32:00.058Z,19.20
2018-05-24T10:33:03.275Z,19.30
2018-05-24T10:34:06.509Z,19.30
2018-05-24T10:35:10.492Z,19.30
2018-05-24T10:36:14.491Z,19.40
2018-05-24T10:37:17.716Z,19.30
2018-05-24T10:38:20.948Z,19.40
2018-05-24T10:39:24.158Z,19.20
2018-05-24T10:40:27.381Z,19.10
2018-05-24T10:41:30.681Z,19.10
2018-05-24T10:42:33.889Z,19.20
2018-05-24T10:43:37.098Z,19.20
2018-05-24T10:44:40.406Z,19.20
2018-05-24T10:45:43.627Z,19.30
2018-05-24T10:46:46.857Z,19.30
2018-05-24T10:47:50.105Z,19.20
2018-05-24T10:48:54.103Z,19.40
2018-05-24T10:49:58.091Z,19.40
2018-05-24T10:51:01.340Z,19.40
2018-05-24T10:52:04.590Z,19.40
2018-05-24T10:53:08.582Z,19.60
2018-05-24T10:54:12.671Z,19.70
2018-05-24T10:55:15.837Z,19.70
2018-05-24T10:56:19.072Z,19.80
2018-05-24T10:57:23.055Z,19.80
2018-05-24T10:58:27.320Z,19.90
2018-05-24T10:59:30.573Z,19.80
2018-05-24T11:00:33.790Z,19.90
2018-05-24T11:01:37.003Z,19.80
2018-05-24T11:02:41.009Z,19.90
2018-05-24T11:03:44.981Z,20.00
2018-05-24T11:04:48.202Z,20.00
2018-05-24T11:05:51.496Z,20.00
2018-05-24T11:06:54.743Z,20.10
2018-05-24T11:07:57.962Z,20.10
2018-05-24T11:09:01.206Z,20.10
2018-05-24T11:10:04.431Z,20.10
2018-05-24T11:11:07.662Z,20.10
2018-05-24T11:12:10.914Z,20.10
2018-05-24T11:13:14.138Z,20.20
2018-05-24T11:14:18.217Z,20.20
2018-05-24T11:15:22.133Z,20.20
2018-05-24T11:16:25.357Z,20.20
2018-05-24T11:17:28.587Z,20.30
2018-05-24T11:18:31.837Z,20.30
2018-05-24T11:19:35.130Z,20.40
2018-05-24T11:20:38.328Z,20.40
2018-05-24T11:21:41.571Z,20.50
2018-05-24T11:22:44.799Z,20.60
2018-05-24T11:23:48.018Z,20.60
2018-05-24T11:24:51.294Z,20.70
2018-05-24T11:25:55.296Z,20.80
2018-05-24T11:26:59.289Z,20.90
2018-05-24T11:28:03.267Z,20.70
2018-05-24T11:29:06.498Z,20.80
2018-05-24T11:30:09.710Z,20.70
2018-05-24T11:31:12.941Z,20.70
2018-05-24T11:32:16.199Z,20.60
2018-05-24T11:33:20.306Z,20.60
2018-05-24T11:34:23.538Z,20.60
2018-05-24T11:35:26.771Z,20.70
2018-05-24T11:36:29.995Z,20.80
2018-05-24T11:37:33.289Z,20.80
2018-05-24T11:38:36.529Z,20.80
2018-05-24T11:39:39.747Z,21.00
2018-05-24T11:40:42.964Z,21.00
2018-05-24T11:41:46.186Z,21.00
2018-05-24T11:42:50.191Z,21.20
2018-05-24T11:43:54.190Z,21.20
2018-05-24T11:44:58.181Z,21.20
2018-05-24T11:46:01.464Z,21.20
2018-05-24T11:47:04.781Z,21.10
2018-05-24T11:48:08.003Z,21.10
2018-05-24T11:49:11.234Z,21.10
2018-05-24T11:50:15.272Z,21.10
2018-05-24T11:51:18.664Z,21.10
2018-05-24T11:52:21.881Z,21.20
2018-05-24T11:53:25.098Z,21.40
2018-05-24T11:54:28.332Z,21.50
2018-05-24T11:55:31.551Z,21.40
2018-05-24T11:56:34.789Z,21.40
2018-05-24T11:57:38.016Z,21.40
2018-05-24T11:58:42.034Z,21.50
2018-05-24T11:59:45.259Z,21.50
2018-05-24T12:00:48.501Z,21.40
2018-05-24T12:01:51.844Z,21.50
2018-05-24T12:02:55.785Z,21.40
2018-05-24T12:03:59.754Z,21.40
2018-05-24T12:05:03.766Z,21.40
2018-05-24T12:06:07.156Z,21.40
2018-05-24T12:07:11.220Z,21.40
2018-05-24T12:08:15.149Z,21.40
2018-05-24T12:09:19.157Z,21.40
2018-05-24T12:10:23.152Z,21.40
2018-05-24T12:11:27.190Z,21.40
2018-05-24T12:12:30.409Z,21.40
2018-05-24T12:13:33.632Z,21.40
2018-05-24T12:14:36.887Z,21.50
2018-05-24T12:15:40.123Z,21.50
2018-05-24T12:16:43.341Z,21.50
2018-05-24T12:17:46.570Z,21.50
2018-05-24T12:18:49.807Z,21.60
2018-05-24T12:19:53.021Z,21.60
2018-05-24T12:20:56.282Z,21.70
2018-05-24T12:21:59.509Z,21.70
2018-05-24T12:23:02.723Z,21.60
2018-05-24T12:24:06.067Z,21.60
2018-05-24T12:25:09.254Z,21.50
2018-05-24T12:26:12.483Z,21.50
2018-05-24T12:27:15.771Z,21.60
2018-05-24T12:28:19.013Z,21.70
2018-05-24T12:29:22.281Z,21.90
2018-05-24T12:30:25.506Z,22.00
2018-05-24T12:31:28.723Z,22.10
2018-05-24T12:32:32.721Z,22.30
2018-05-24T12:33:35.942Z,22.30
2018-05-24T12:34:39.169Z,22.30
2018-05-24T12:35:42.437Z,22.40
2018-05-24T12:36:45.682Z,22.30
2018-05-24T12:37:48.913Z,22.10
2018-05-24T12:38:52.146Z,22.00
2018-05-24T12:39:55.355Z,22.00
2018-05-24T12:40:58.622Z,22.10
2018-05-24T12:42:01.854Z,22.20
2018-05-24T12:43:05.097Z,22.30
2018-05-24T12:44:08.323Z,22.30
2018-05-24T12:45:11.528Z,22.50
2018-05-24T12:46:15.580Z,22.80
2018-05-24T12:47:18.806Z,22.80
2018-05-24T12:48:22.801Z,23.50
2018-05-24T12:49:26.807Z,23.80
2018-05-24T12:50:30.849Z,24.10
2018-05-24T12:51:34.076Z,24.10
2018-05-24T12:52:37.297Z,24.20
2018-05-24T12:53:40.557Z,24.30
2018-05-24T12:54:44.576Z,24.10
2018-05-24T12:55:48.555Z,24.10
2018-05-24T12:56:52.543Z,24.20
2018-05-24T12:57:55.847Z,24.20
2018-05-24T12:58:59.012Z,24.30
2018-05-24T13:00:02.318Z,24.40
2018-05-24T13:01:06.291Z,24.70
2018-05-24T13:02:09.517Z,24.70
2018-05-24T13:03:12.814Z,24.90
2018-05-24T13:04:16.134Z,24.90
2018-05-24T13:05:19.396Z,25.00
2018-05-24T13:06:22.544Z,24.80
2018-05-24T13:07:25.759Z,24.40
2018-05-24T13:08:28.983Z,24.20
2018-05-24T13:09:32.237Z,24.10
2018-05-24T13:10:35.456Z,23.90
2018-05-24T13:11:39.476Z,23.40
2018-05-24T13:12:43.457Z,23.40
2018-05-24T13:13:47.479Z,23.30
2018-05-24T13:14:50.706Z,23.30
2018-05-24T13:15:53.950Z,23.20
2018-05-24T13:16:57.952Z,22.90
2018-05-24T13:18:01.949Z,22.90
2018-05-24T13:19:05.184Z,22.90
2018-05-24T13:20:09.200Z,22.80
2018-05-24T13:21:12.389Z,22.80
2018-05-24T13:22:16.461Z,22.70
2018-05-24T13:23:19.684Z,22.60
2018-05-24T13:24:23.743Z,22.70
2018-05-24T13:25:27.657Z,22.70
2018-05-24T13:26:30.886Z,22.70
2018-05-24T13:27:34.105Z,22.60
2018-05-24T13:28:37.356Z,22.60
2018-05-24T13:29:40.572Z,22.70
2018-05-24T13:30:43.807Z,22.80
2018-05-24T13:31:47.031Z,22.80
2018-05-24T13:32:50.284Z,23.00
2018-05-24T13:33:53.502Z,22.90
2018-05-24T13:34:56.781Z,22.80
2018-05-24T13:35:59.992Z,22.80
2018-05-24T13:37:03.222Z,22.70
2018-05-24T13:38:06.453Z,22.60